createdAt,value
2023-01-10T08:06:06.989Z,552.00
2023-01-10T08:07:06.943Z,576.00
2023-01-10T08:08:06.947Z,572.00
2023-01-10T08:09:06.905Z,580.00
2023-01-10T08:10:06.904Z,592.00
2023-01-10T08:11:06.899Z,604.00
2023-01-10T08:12:06.882Z,616.00
2023-01-10T08:13:18.363Z,636.00
2023-01-10T08:14:07.897Z,660.00
2023-01-10T08:15:06.852Z,696.00
2023-01-10T08:16:06.880Z,728.00
2023-01-10T08:17:06.828Z,744.00
2023-01-10T08:18:06.824Z,768.00
2023-01-10T08:19:06.793Z,760.00
2023-01-10T08:20:06.791Z,776.00
2023-01-10T08:21:06.778Z,804.00
2023-01-10T08:22:06.814Z,844.00
2023-01-10T08:23:06.768Z,900.00
2023-01-10T08:24:06.731Z,920.00
2023-01-10T08:25:06.760Z,928.00
2023-01-10T08:26:06.714Z,944.00
2023-01-10T08:27:06.716Z,924.00
2023-01-10T08:28:06.702Z,960.00
2023-01-10T08:29:06.694Z,988.00
2023-01-10T08:30:06.697Z,1044.00
2023-01-10T08:31:06.731Z,1036.00
2023-01-10T08:32:06.645Z,1036.00
2023-01-10T08:33:06.651Z,1064.00
2023-01-10T08:34:06.635Z,1048.00
2023-01-10T08:35:06.659Z,1060.00
2023-01-10T08:36:06.598Z,1080.00
2023-01-10T08:37:06.603Z,1104.00
2023-01-10T08:38:06.606Z,1100.00
2023-01-10T08:39:06.567Z,1156.00
2023-01-10T08:40:06.580Z,1172.00
2023-01-10T08:41:06.542Z,1188.00
2023-01-10T08:42:06.555Z,1192.00
2023-01-10T08:43:06.544Z,1176.00
2023-01-10T08:44:06.505Z,1184.00
2023-01-10T08:45:06.524Z,1192.00
2023-01-10T08:46:06.494Z,1168.00
2023-01-10T08:47:06.483Z,1184.00
2023-01-10T08:48:06.460Z,1276.00
2023-01-10T08:49:06.466Z,1328.00
2023-01-10T08:50:08.013Z,1348.00
2023-01-10T08:51:06.433Z,1324.00
2023-01-10T08:52:06.430Z,1392.00
2023-01-10T08:53:06.420Z,1352.00
2023-01-10T08:54:06.425Z,1380.00
2023-01-10T08:55:06.423Z,1336.00
2023-01-10T08:56:06.383Z,1336.00
2023-01-10T08:57:06.364Z,1468.00
2023-01-10T08:58:06.351Z,1664.00
2023-01-10T08:59:06.362Z,2048.00
2023-01-10T09:00:06.350Z,1736.00
2023-01-10T09:01:06.366Z,1532.00
2023-01-10T09:02:06.370Z,1764.00
2023-01-10T09:03:06.387Z,1788.00
2023-01-10T09:04:06.288Z,1764.00
2023-01-10T09:05:09.819Z,2012.00
2023-01-10T09:06:07.271Z,1760.00
2023-01-10T09:07:06.263Z,1956.00
2023-01-10T09:08:06.257Z,1736.00
2023-01-10T09:09:06.227Z,1976.00
2023-01-10T09:10:06.257Z,2428.00
2023-01-10T09:11:06.221Z,2220.00
2023-01-10T09:12:06.209Z,2452.00
2023-01-10T09:13:06.179Z,2412.00
2023-01-10T09:14:06.176Z,2144.00
2023-01-10T09:15:06.173Z,1872.00
2023-01-10T09:16:06.221Z,1988.00
2023-01-10T09:17:06.156Z,2148.00
2023-01-10T09:18:06.151Z,1984.00
2023-01-10T09:19:06.137Z,1988.00
2023-01-10T09:20:06.107Z,1936.00
2023-01-10T09:21:06.101Z,1800.00
2023-01-10T09:22:06.986Z,1676.00
2023-01-10T09:23:06.081Z,1760.00
2023-01-10T09:24:06.065Z,1808.00
2023-01-10T09:25:06.069Z,1744.00
2023-01-10T09:26:06.079Z,1712.00
2023-01-10T09:27:06.029Z,1724.00
2023-01-10T09:28:06.012Z,1744.00
2023-01-10T09:29:06.000Z,1784.00
2023-01-10T09:30:06.047Z,1804.00
2023-01-10T09:31:06.070Z,1812.00
2023-01-10T09:32:05.968Z,1812.00
2023-01-10T09:33:05.958Z,1824.00
2023-01-10T09:34:05.965Z,1880.00
2023-01-10T09:35:05.971Z,1952.00
2023-01-10T09:36:05.926Z,2028.00
2023-01-10T09:37:05.915Z,2100.00
2023-01-10T09:38:05.919Z,2152.00
2023-01-10T09:39:05.913Z,2228.00
2023-01-10T09:40:05.898Z,2296.00
2023-01-10T09:41:05.866Z,2368.00
2023-01-10T09:42:05.886Z,2440.00
2023-01-10T09:43:05.852Z,2500.00
2023-01-10T09:44:05.842Z,2528.00
2023-01-10T09:45:05.865Z,2532.00
2023-01-10T09:46:05.816Z,2540.00
2023-01-10T09:47:11.247Z,2576.00
2023-01-10T09:48:06.778Z,2564.00
2023-01-10T09:49:05.795Z,2484.00
2023-01-10T09:50:05.792Z,2532.00
2023-01-10T09:51:05.766Z,2580.00
2023-01-10T09:52:05.737Z,2684.00
2023-01-10T09:53:05.733Z,2756.00
2023-01-10T09:54:12.198Z,2824.00
2023-01-10T09:55:07.603Z,2912.00
2023-01-10T09:56:05.703Z,2956.00
2023-01-10T09:57:05.702Z,2968.00
2023-01-10T09:58:05.705Z,2960.00
2023-01-10T09:59:05.676Z,2936.00
2023-01-10T10:00:05.673Z,2920.00
2023-01-10T10:01:05.671Z,2884.00
2023-01-10T10:02:05.639Z,2884.00
2023-01-10T10:03:05.705Z,2952.00
2023-01-10T10:04:05.654Z,3052.00
2023-01-10T10:05:05.629Z,3084.00
2023-01-10T10:06:11.905Z,3120.00
2023-01-10T10:07:06.563Z,3172.00
2023-01-10T10:08:05.556Z,3224.00
2023-01-10T10:09:05.549Z,3208.00
2023-01-10T10:10:05.546Z,3284.00
2023-01-10T10:11:05.536Z,3504.00
2023-01-10T10:12:05.514Z,3732.00
2023-01-10T10:13:05.960Z,3872.00
2023-01-10T10:14:05.535Z,3968.00
2023-01-10T10:15:05.504Z,4132.00
2023-01-10T10:16:05.562Z,4236.00
2023-01-10T10:17:05.471Z,4448.00
2023-01-10T10:18:05.456Z,4516.00
2023-01-10T10:19:05.444Z,5032.00
2023-01-10T10:20:05.447Z,5200.00
2023-01-10T10:21:05.421Z,5292.00
2023-01-10T10:22:05.443Z,4996.00
2023-01-10T10:23:05.394Z,4960.00
2023-01-10T10:24:05.373Z,4752.00
2023-01-10T10:25:05.398Z,4496.00
2023-01-10T10:26:05.370Z,4116.00
2023-01-10T10:27:05.365Z,4168.00
2023-01-10T10:28:05.329Z,4536.00
2023-01-10T10:29:05.315Z,5032.00
2023-01-10T10:30:05.352Z,5236.00
2023-01-10T10:31:05.344Z,5436.00
2023-01-10T10:32:05.294Z,5392.00
2023-01-10T10:33:05.269Z,5320.00
2023-01-10T10:34:05.276Z,5132.00
2023-01-10T10:35:05.332Z,5172.00
2023-01-10T10:36:05.260Z,5292.00
2023-01-10T10:37:05.226Z,5352.00
2023-01-10T10:38:05.219Z,5360.00
2023-01-10T10:39:05.205Z,5424.00
2023-01-10T10:40:05.228Z,5236.00
2023-01-10T10:41:05.186Z,5240.00
2023-01-10T10:42:05.184Z,5376.00
2023-01-10T10:43:05.167Z,5388.00
2023-01-10T10:44:05.153Z,5312.00
2023-01-10T10:45:05.152Z,5252.00
2023-01-10T10:46:05.328Z,5132.00
2023-01-10T10:47:05.122Z,5336.00
2023-01-10T10:48:05.102Z,5444.00
2023-01-10T10:49:05.090Z,5472.00
2023-01-10T10:50:05.097Z,5388.00
2023-01-10T10:51:05.065Z,5360.00
2023-01-10T10:52:05.056Z,5612.00
2023-01-10T10:53:05.062Z,5804.00
2023-01-10T10:54:05.034Z,5752.00
2023-01-10T10:55:05.026Z,5804.00
2023-01-10T10:56:05.021Z,6108.00
2023-01-10T10:57:04.995Z,6000.00
2023-01-10T10:58:05.000Z,5768.00
2023-01-10T10:59:04.994Z,5680.00
2023-01-10T11:00:04.986Z,5524.00
2023-01-10T11:01:05.112Z,5540.00
2023-01-10T11:02:05.134Z,5556.00
2023-01-10T11:03:04.941Z,5596.00
2023-01-10T11:04:04.922Z,5624.00
2023-01-10T11:05:05.026Z,5696.00
2023-01-10T11:06:04.896Z,5436.00
2023-01-10T11:07:04.885Z,5208.00
2023-01-10T11:08:04.903Z,5052.00
2023-01-10T11:09:04.891Z,4780.00
2023-01-10T11:10:04.892Z,4632.00
2023-01-10T11:11:04.834Z,4180.00
2023-01-10T11:12:04.852Z,4236.00
2023-01-10T11:13:04.824Z,4292.00
2023-01-10T11:14:04.830Z,4384.00
2023-01-10T11:15:04.808Z,4356.00
2023-01-10T11:16:04.875Z,4316.00
2023-01-10T11:17:04.780Z,4284.00
2023-01-10T11:18:04.802Z,4264.00
2023-01-10T11:19:04.758Z,4240.00
2023-01-10T11:20:04.741Z,4148.00
2023-01-10T11:21:04.736Z,4120.00
2023-01-10T11:22:04.731Z,4124.00
2023-01-10T11:23:04.719Z,4096.00
2023-01-10T11:24:04.704Z,3988.00
2023-01-10T11:25:04.689Z,3868.00
2023-01-10T11:26:04.697Z,3736.00
2023-01-10T11:27:04.656Z,3652.00
2023-01-10T11:28:04.648Z,3596.00
2023-01-10T11:29:04.647Z,3484.00
2023-01-10T11:30:04.651Z,3380.00
2023-01-10T11:31:04.623Z,3324.00
2023-01-10T11:32:04.662Z,3280.00
2023-01-10T11:33:04.600Z,3256.00
2023-01-10T11:34:04.656Z,3232.00
2023-01-10T11:35:04.565Z,3232.00
2023-01-10T11:36:04.575Z,3236.00
2023-01-10T11:37:04.545Z,3268.00
2023-01-10T11:38:04.533Z,3284.00
2023-01-10T11:39:04.528Z,3356.00
2023-01-10T11:40:04.510Z,3380.00
2023-01-10T11:41:04.522Z,3360.00
2023-01-10T11:42:04.503Z,3428.00
2023-01-10T11:43:04.470Z,3496.00
2023-01-10T11:44:04.464Z,3420.00
2023-01-10T11:45:04.465Z,3396.00
2023-01-10T11:46:04.508Z,3376.00
2023-01-10T11:47:04.495Z,3352.00
2023-01-10T11:48:04.435Z,3388.00
2023-01-10T11:49:07.307Z,3384.00
2023-01-10T11:50:04.442Z,3368.00
2023-01-10T11:51:04.411Z,3332.00
2023-01-10T11:52:04.391Z,3304.00
2023-01-10T11:53:04.369Z,3316.00
2023-01-10T11:54:04.409Z,3412.00
2023-01-10T11:55:04.342Z,3596.00
2023-01-10T11:56:04.362Z,3684.00
2023-01-10T11:57:04.340Z,3744.00
2023-01-10T11:58:04.320Z,3668.00
2023-01-10T11:59:04.289Z,3668.00
2023-01-10T12:00:04.300Z,3676.00
2023-01-10T12:01:04.348Z,3688.00
2023-01-10T12:02:04.396Z,3688.00
2023-01-10T12:03:04.257Z,3736.00
2023-01-10T12:04:04.250Z,3904.00
2023-01-10T12:05:04.304Z,3896.00
2023-01-10T12:06:04.252Z,3824.00
2023-01-10T12:07:04.204Z,3860.00
2023-01-10T12:08:04.190Z,3852.00
2023-01-10T12:09:04.179Z,3836.00
2023-01-10T12:10:04.178Z,3820.00
2023-01-10T12:11:04.186Z,3908.00
2023-01-10T12:12:04.642Z,3932.00
2023-01-10T12:13:04.129Z,3916.00
2023-01-10T12:14:04.122Z,3824.00
2023-01-10T12:15:04.123Z,3768.00
2023-01-10T12:16:04.117Z,3732.00
2023-01-10T12:17:04.163Z,3680.00
2023-01-10T12:18:04.107Z,3632.00
2023-01-10T12:19:04.061Z,3592.00
2023-01-10T12:20:04.059Z,3460.00
2023-01-10T12:21:04.123Z,3312.00
2023-01-10T12:22:04.071Z,3180.00
2023-01-10T12:23:04.029Z,3056.00
2023-01-10T12:24:04.009Z,2944.00
2023-01-10T12:25:04.007Z,2852.00
2023-01-10T12:26:11.783Z,2776.00
2023-01-10T12:27:04.986Z,2704.00
2023-01-10T12:28:03.966Z,2640.00
2023-01-10T12:29:03.977Z,2580.00
2023-01-10T12:30:03.940Z,2516.00
2023-01-10T12:31:03.969Z,2464.00
2023-01-10T12:32:03.937Z,2444.00
2023-01-10T12:33:03.918Z,2436.00
2023-01-10T12:34:03.914Z,2432.00
2023-01-10T12:35:03.905Z,2436.00
2023-01-10T12:36:03.878Z,2420.00
2023-01-10T12:37:03.868Z,2400.00
2023-01-10T12:38:03.909Z,2396.00
2023-01-10T12:39:03.868Z,2408.00
2023-01-10T12:40:03.827Z,2392.00
2023-01-10T12:41:03.811Z,2364.00
2023-01-10T12:42:03.814Z,2332.00
2023-01-10T12:43:03.788Z,2316.00
2023-01-10T12:44:03.805Z,2292.00
2023-01-10T12:45:03.799Z,2304.00
2023-01-10T12:46:12.787Z,2328.00
2023-01-10T12:47:08.046Z,2336.00
2023-01-10T12:48:03.751Z,2344.00
2023-01-10T12:49:03.729Z,2352.00
2023-01-10T12:50:03.744Z,2336.00
2023-01-10T12:51:03.708Z,2312.00
2023-01-10T12:52:03.709Z,2280.00
2023-01-10T12:53:03.681Z,2240.00
2023-01-10T12:54:03.727Z,2200.00
2023-01-10T12:55:03.674Z,2172.00
2023-01-10T12:56:03.668Z,2144.00
2023-01-10T12:57:03.659Z,2128.00
2023-01-10T12:58:03.639Z,2116.00
2023-01-10T12:59:03.620Z,2096.00
2023-01-10T13:00:03.615Z,2060.00
2023-01-10T13:01:03.727Z,2052.00
2023-01-10T13:02:03.743Z,2044.00
2023-01-10T13:03:03.634Z,2040.00
2023-01-10T13:04:03.553Z,2040.00
2023-01-10T13:05:03.560Z,2056.00
2023-01-10T13:06:03.567Z,2064.00
2023-01-10T13:07:03.543Z,2088.00
2023-01-10T13:08:03.530Z,2096.00
2023-01-10T13:09:03.512Z,2100.00
2023-01-10T13:10:03.527Z,2092.00
2023-01-10T13:11:03.489Z,2096.00
2023-01-10T13:12:03.489Z,2084.00
2023-01-10T13:13:03.464Z,2064.00
2023-01-10T13:14:03.463Z,2056.00
2023-01-10T13:15:03.449Z,2044.00
2023-01-10T13:16:03.505Z,2040.00
2023-01-10T13:17:03.431Z,2024.00
2023-01-10T13:18:03.394Z,2032.00
2023-01-10T13:19:03.395Z,2032.00
2023-01-10T13:20:03.387Z,2044.00
2023-01-10T13:21:03.357Z,2036.00
2023-01-10T13:22:03.380Z,2040.00
2023-01-10T13:23:03.341Z,2036.00
2023-01-10T13:24:03.340Z,2012.00
2023-01-10T13:25:03.324Z,1976.00
2023-01-10T13:26:03.322Z,1932.00
2023-01-10T13:27:03.320Z,1888.00
2023-01-10T13:28:03.294Z,1832.00
2023-01-10T13:29:03.276Z,1784.00
2023-01-10T13:30:03.277Z,1740.00
2023-01-10T13:31:03.312Z,1708.00
2023-01-10T13:32:03.274Z,1680.00
2023-01-10T13:33:03.227Z,1652.00
2023-01-10T13:34:03.213Z,1636.00
2023-01-10T13:35:03.221Z,1620.00
2023-01-10T13:36:03.213Z,1596.00
2023-01-10T13:37:03.188Z,1564.00
2023-01-10T13:38:03.167Z,1520.00
2023-01-10T13:39:03.193Z,1472.00
2023-01-10T13:40:03.144Z,1436.00
2023-01-10T13:41:03.130Z,1416.00
2023-01-10T13:42:03.187Z,1392.00
2023-01-10T13:43:03.105Z,1364.00
2023-01-10T13:44:03.111Z,1332.00
2023-01-10T13:45:03.103Z,1300.00
2023-01-10T13:46:03.092Z,1264.00
2023-01-10T13:47:03.092Z,1232.00
2023-01-10T13:48:03.088Z,1200.00
2023-01-10T13:49:03.036Z,1172.00
2023-01-10T13:50:03.026Z,1136.00
2023-01-10T13:51:03.027Z,1108.00
2023-01-10T13:52:03.022Z,1080.00
2023-01-10T13:53:03.004Z,1040.00
2023-01-10T13:54:03.000Z,1008.00
2023-01-10T13:55:02.969Z,964.00
2023-01-10T13:56:02.976Z,928.00
2023-01-10T13:57:02.958Z,900.00
2023-01-10T13:58:02.978Z,876.00
2023-01-10T13:59:02.922Z,872.00
2023-01-10T14:00:02.928Z,872.00
2023-01-10T14:01:03.034Z,864.00
2023-01-10T14:02:03.077Z,856.00
2023-01-10T14:03:02.877Z,840.00
2023-01-10T14:04:02.887Z,820.00
2023-01-10T14:05:02.857Z,800.00
2023-01-10T14:06:02.847Z,772.00
2023-01-10T14:07:02.861Z,752.00
2023-01-10T14:08:02.846Z,744.00
2023-01-10T14:09:02.825Z,744.00
2023-01-10T14:10:04.839Z,744.00
2023-01-10T14:11:02.806Z,748.00
2023-01-10T14:12:02.809Z,752.00
2023-01-10T14:13:02.779Z,748.00
2023-01-10T14:14:02.792Z,740.00
2023-01-10T14:15:02.763Z,732.00
2023-01-10T14:16:04.974Z,720.00
2023-01-10T14:17:02.761Z,712.00
2023-01-10T14:18:02.724Z,704.00
2023-01-10T14:19:02.706Z,700.00
2023-01-10T14:20:02.683Z,692.00
2023-01-10T14:21:02.694Z,684.00
2023-01-10T14:22:02.689Z,680.00
2023-01-10T14:23:02.664Z,676.00
2023-01-10T14:24:02.640Z,672.00
2023-01-10T14:25:02.649Z,668.00
2023-01-10T14:26:02.633Z,664.00
2023-01-10T14:27:02.622Z,648.00
2023-01-10T14:28:02.606Z,636.00
2023-01-10T14:29:02.616Z,616.00
2023-01-10T14:30:02.588Z,596.00
2023-01-10T14:31:02.693Z,588.00
2023-01-10T14:32:02.567Z,576.00
2023-01-10T14:33:02.555Z,564.00
2023-01-10T14:34:02.537Z,552.00
2023-01-10T14:35:02.565Z,544.00
2023-01-10T14:36:02.560Z,532.00
2023-01-10T14:37:02.525Z,532.00
2023-01-10T14:38:02.507Z,540.00
2023-01-10T14:39:02.501Z,548.00
2023-01-10T14:40:02.468Z,552.00
2023-01-10T14:41:02.484Z,556.00
2023-01-10T14:42:02.459Z,552.00
2023-01-10T14:43:02.441Z,536.00
2023-01-10T14:44:02.451Z,516.00
2023-01-10T14:45:02.415Z,496.00
2023-01-10T14:46:02.483Z,472.00
2023-01-10T14:47:02.407Z,460.00
2023-01-10T14:48:02.367Z,452.00
2023-01-10T14:49:02.395Z,440.00
2023-01-10T14:50:02.362Z,416.00
2023-01-10T14:51:02.336Z,396.00
2023-01-10T14:52:02.338Z,380.00
2023-01-10T14:53:02.323Z,364.00
2023-01-10T14:54:02.306Z,352.00
2023-01-10T14:55:02.306Z,348.00
2023-01-10T14:56:02.288Z,344.00
2023-01-10T14:57:02.280Z,336.00
2023-01-10T14:58:02.253Z,332.00
2023-01-10T14:59:02.260Z,320.00
2023-01-10T15:00:02.288Z,312.00
2023-01-10T15:01:02.283Z,300.00
2023-01-10T15:02:02.391Z,284.00
2023-01-10T15:03:02.209Z,268.00
2023-01-10T15:04:02.197Z,256.00
2023-01-10T15:05:02.254Z,244.00
2023-01-10T15:06:02.164Z,236.00
2023-01-10T15:07:02.162Z,228.00
2023-01-10T15:08:02.151Z,232.00
2023-01-10T15:09:02.148Z,228.00
2023-01-10T15:10:02.158Z,212.00
2023-01-10T15:11:02.111Z,176.00
2023-01-10T15:12:02.121Z,148.00
2023-01-10T15:13:02.085Z,124.00
2023-01-10T15:14:02.065Z,100.00
2023-01-10T15:15:02.078Z,96.00
2023-01-10T15:16:02.113Z,88.00
2023-01-10T15:17:02.075Z,80.00
2023-01-10T15:18:02.058Z,84.00
2023-01-10T15:19:02.021Z,84.00
2023-01-10T15:20:02.078Z,96.00
2023-01-10T15:21:02.011Z,96.00
2023-01-10T15:22:02.014Z,96.00
2023-01-10T15:23:01.969Z,84.00
2023-01-10T15:24:01.953Z,92.00
2023-01-10T15:25:01.953Z,96.00
2023-01-10T15:26:01.957Z,96.00
2023-01-10T15:27:01.934Z,104.00
2023-01-10T15:28:01.923Z,104.00
2023-01-10T15:29:01.926Z,100.00
2023-01-10T15:30:02.001Z,96.00
2023-01-10T15:31:01.931Z,96.00
2023-01-10T15:32:01.898Z,88.00
2023-01-10T15:33:01.889Z,80.00
2023-01-10T15:34:01.888Z,72.00
2023-01-10T15:35:01.834Z,64.00
2023-01-10T15:36:01.847Z,64.00
2023-01-10T15:37:01.829Z,56.00
2023-01-10T15:38:01.811Z,52.00
2023-01-10T15:39:01.787Z,52.00
2023-01-10T15:40:01.835Z,48.00
2023-01-10T15:41:01.806Z,40.00
2023-01-10T15:42:01.754Z,36.00
2023-01-10T15:43:01.744Z,32.00
2023-01-10T15:44:01.753Z,32.00
2023-01-10T15:45:01.735Z,32.00
2023-01-10T15:46:01.749Z,32.00
2023-01-10T15:47:01.699Z,28.00
2023-01-10T15:48:01.693Z,28.00
2023-01-10T15:49:01.702Z,28.00
2023-01-10T15:50:01.719Z,24.00
2023-01-10T15:51:01.678Z,20.00
2023-01-10T15:52:01.651Z,20.00
2023-01-10T15:53:01.625Z,20.00
2023-01-10T15:54:01.608Z,16.00
2023-01-10T15:55:01.619Z,12.00
2023-01-10T15:56:01.629Z,12.00
2023-01-10T15:57:01.613Z,12.00
2023-01-10T15:58:01.578Z,8.00
2023-01-10T15:59:01.578Z,8.00
2023-01-10T16:00:01.594Z,8.00
2023-01-10T16:01:01.793Z,4.00
2023-01-10T16:02:01.749Z,4.00
2023-01-10T16:03:01.607Z,4.00
2023-01-10T16:04:01.502Z,4.00
2023-01-10T16:05:01.502Z,0.00
2023-01-10T16:06:01.529Z,4.00
2023-01-10T16:07:01.499Z,4.00
2023-01-10T16:08:01.454Z,0.00
2023-01-10T16:09:01.456Z,0.00
2023-01-10T16:10:02.217Z,0.00
2023-01-10T16:11:01.421Z,0.00
2023-01-10T16:12:01.433Z,0.00
2023-01-10T16:13:01.440Z,0.00
2023-01-10T16:14:01.382Z,0.00
2023-01-10T16:15:01.388Z,0.00
2023-01-10T16:16:01.403Z,0.00
2023-01-10T16:17:01.379Z,0.00
2023-01-10T16:18:01.359Z,0.00
2023-01-10T16:19:02.891Z,0.00
2023-01-10T16:20:01.344Z,0.00
2023-01-10T16:21:01.311Z,0.00
2023-01-10T16:22:01.331Z,0.00
2023-01-10T16:23:01.330Z,0.00
2023-01-10T16:24:01.295Z,0.00
2023-01-10T16:25:01.289Z,0.00
2023-01-10T16:26:01.253Z,0.00
2023-01-10T16:27:01.267Z,0.00
2023-01-10T16:28:01.246Z,0.00
2023-01-10T16:29:01.233Z,0.00
2023-01-10T16:30:01.229Z,0.00
2023-01-10T16:31:01.255Z,0.00
2023-01-10T16:32:01.191Z,0.00
2023-01-10T16:33:01.169Z,0.00
2023-01-10T16:34:01.168Z,0.00
2023-01-10T16:35:01.148Z,0.00
2023-01-10T16:36:01.145Z,0.00
2023-01-10T16:37:01.140Z,0.00
2023-01-10T16:38:01.145Z,0.00
2023-01-10T16:39:01.116Z,0.00
2023-01-10T16:40:01.101Z,0.00
2023-01-10T16:41:01.088Z,0.00
2023-01-10T16:42:01.093Z,0.00
2023-01-10T16:43:01.057Z,0.00
2023-01-10T16:44:01.057Z,0.00
2023-01-10T16:45:01.038Z,0.00
2023-01-10T16:46:01.106Z,0.00
2023-01-10T16:47:01.040Z,0.00
2023-01-10T16:48:01.004Z,0.00
2023-01-10T16:49:01.014Z,0.00
2023-01-10T16:50:00.988Z,0.00
2023-01-10T16:51:00.973Z,0.00
2023-01-10T16:52:01.008Z,0.00
2023-01-10T16:53:00.945Z,0.00
2023-01-10T16:54:00.953Z,0.00
2023-01-10T16:55:00.930Z,0.00
2023-01-10T16:56:00.907Z,0.00
2023-01-10T16:57:00.916Z,0.00
2023-01-10T16:58:00.889Z,0.00
2023-01-10T16:59:00.899Z,0.00
2023-01-10T17:00:00.879Z,0.00
2023-01-10T17:01:00.961Z,0.00
2023-01-10T17:02:00.946Z,0.00
2023-01-10T17:03:00.847Z,0.00
2023-01-10T17:04:00.856Z,0.00
2023-01-10T17:05:00.828Z,0.00
2023-01-10T17:06:00.806Z,0.00
2023-01-10T17:07:00.801Z,0.00
2023-01-10T17:08:00.852Z,0.00
2023-01-10T17:09:00.765Z,0.00
2023-01-10T17:10:00.816Z,0.00
2023-01-10T17:11:00.764Z,0.00
2023-01-10T17:12:00.750Z,0.00
2023-01-10T17:13:00.730Z,0.00
2023-01-10T17:14:00.714Z,0.00
2023-01-10T17:15:00.709Z,0.00
2023-01-10T17:16:00.781Z,0.00
2023-01-10T17:17:03.237Z,0.00
2023-01-10T17:18:00.675Z,0.00
2023-01-10T17:19:00.664Z,0.00
2023-01-10T17:20:00.635Z,0.00
2023-01-10T17:21:00.675Z,0.00
2023-01-10T17:22:00.653Z,0.00
2023-01-10T17:23:00.634Z,0.00
2023-01-10T17:24:00.594Z,0.00
2023-01-10T17:25:00.582Z,0.00
2023-01-10T17:26:00.599Z,0.00
2023-01-10T17:27:00.584Z,0.00
2023-01-10T17:28:00.557Z,0.00
2023-01-10T17:29:00.547Z,0.00
2023-01-10T17:30:00.533Z,0.00
2023-01-10T17:31:00.515Z,0.00
2023-01-10T17:32:00.587Z,0.00
2023-01-10T17:33:00.503Z,0.00
2023-01-10T17:34:00.475Z,0.00
2023-01-10T17:35:00.489Z,0.00
2023-01-10T17:36:00.452Z,0.00
2023-01-10T17:37:00.477Z,0.00
2023-01-10T17:38:00.440Z,0.00
2023-01-10T17:39:00.446Z,0.00
2023-01-10T17:40:00.426Z,0.00
2023-01-10T17:41:00.400Z,0.00
2023-01-10T17:42:00.419Z,0.00
2023-01-10T17:43:00.388Z,0.00
2023-01-10T17:44:00.360Z,0.00
2023-01-10T17:45:00.365Z,0.00
2023-01-10T17:46:00.448Z,0.00
2023-01-10T17:47:00.343Z,0.00
2023-01-10T17:48:00.334Z,0.00
2023-01-10T17:49:00.334Z,0.00
2023-01-10T17:50:00.291Z,0.00
2023-01-10T17:51:00.313Z,0.00
2023-01-10T17:52:00.298Z,0.00
2023-01-10T17:53:00.261Z,0.00
2023-01-10T17:54:00.265Z,0.00
2023-01-10T17:55:00.246Z,0.00
2023-01-10T17:56:00.310Z,0.00
2023-01-10T17:57:00.236Z,0.00
2023-01-10T17:58:00.223Z,0.00
2023-01-10T17:59:00.201Z,0.00
2023-01-10T18:00:00.190Z,0.00
2023-01-10T18:01:00.277Z,0.00
2023-01-10T18:02:00.424Z,0.00
2023-01-10T18:03:00.311Z,0.00
2023-01-10T18:04:00.153Z,0.00
2023-01-10T18:05:00.143Z,0.00
2023-01-10T18:06:00.127Z,0.00
2023-01-10T18:07:00.105Z,0.00
2023-01-10T18:08:00.108Z,0.00
2023-01-10T18:09:00.115Z,0.00
2023-01-10T18:10:00.128Z,0.00
2023-01-10T18:11:00.122Z,0.00
2023-01-10T18:12:00.063Z,0.00
2023-01-10T18:13:02.516Z,0.00
2023-01-10T18:14:00.061Z,0.00
2023-01-10T18:15:00.043Z,0.00
2023-01-10T18:16:00.006Z,0.00
2023-01-10T18:17:00.081Z,0.00
2023-01-10T18:17:59.996Z,0.00
2023-01-10T18:18:59.999Z,0.00
2023-01-10T18:19:59.976Z,0.00
2023-01-10T18:20:59.949Z,0.00
2023-01-10T18:21:59.941Z,0.00
2023-01-10T18:22:59.941Z,0.00
2023-01-10T18:23:59.951Z,0.00
2023-01-10T18:24:59.905Z,0.00
2023-01-10T18:25:59.924Z,0.00
2023-01-10T18:26:59.893Z,0.00
2023-01-10T18:27:59.866Z,0.00
2023-01-10T18:28:59.872Z,0.00
2023-01-10T18:29:59.877Z,0.00
2023-01-10T18:30:59.878Z,0.00
2023-01-10T18:31:59.821Z,0.00
2023-01-10T18:32:59.829Z,0.00
2023-01-10T18:33:59.836Z,0.00
2023-01-10T18:34:59.787Z,0.00
2023-01-10T18:35:59.779Z,0.00
2023-01-10T18:36:59.776Z,0.00
2023-01-10T18:37:59.769Z,0.00
2023-01-10T18:38:59.773Z,0.00
2023-01-10T18:39:59.733Z,0.00
2023-01-10T18:40:59.717Z,0.00
2023-01-10T18:41:59.722Z,0.00
2023-01-10T18:42:59.707Z,0.00
2023-01-10T18:43:59.699Z,0.00
2023-01-10T18:44:59.677Z,0.00
2023-01-10T18:45:59.744Z,0.00
2023-01-10T18:46:59.677Z,0.00
2023-01-10T18:47:59.641Z,0.00
2023-01-10T18:48:59.672Z,0.00
2023-01-10T18:49:59.624Z,0.00
2023-01-10T18:50:59.630Z,0.00
2023-01-10T18:51:59.615Z,0.00
2023-01-10T18:52:59.599Z,0.00
2023-01-10T18:53:59.606Z,0.00
2023-01-10T18:55:02.168Z,0.00
2023-01-10T18:55:59.566Z,0.00
2023-01-10T18:56:59.544Z,0.00
2023-01-10T18:57:59.529Z,0.00
2023-01-10T18:58:59.515Z,0.00
2023-01-10T18:59:59.521Z,0.00
2023-01-10T19:00:59.604Z,0.00
2023-01-10T19:01:59.509Z,0.00
2023-01-10T19:02:59.497Z,0.00
2023-01-10T19:03:59.470Z,0.00
2023-01-10T19:04:59.441Z,0.00
2023-01-10T19:05:59.523Z,0.00
2023-01-10T19:06:59.419Z,0.00
2023-01-10T19:07:59.434Z,0.00
2023-01-10T19:08:59.414Z,0.00
2023-01-10T19:09:59.399Z,0.00
2023-01-10T19:11:12.948Z,0.00
2023-01-10T19:12:00.370Z,0.00
2023-01-10T19:12:59.360Z,0.00
2023-01-10T19:13:59.360Z,0.00
2023-01-10T19:14:59.345Z,0.00
2023-01-10T19:15:59.381Z,0.00
2023-01-10T19:16:59.331Z,0.00
2023-01-10T19:17:59.339Z,0.00
2023-01-10T19:18:59.290Z,0.00
2023-01-10T19:19:59.283Z,0.00
2023-01-10T19:20:59.283Z,0.00
2023-01-10T19:21:59.294Z,0.00
2023-01-10T19:22:59.243Z,0.00
2023-01-10T19:23:59.236Z,0.00
2023-01-10T19:24:59.297Z,0.00
2023-01-10T19:25:59.232Z,0.00
2023-01-10T19:26:59.238Z,0.00
2023-01-10T19:27:59.204Z,0.00
2023-01-10T19:28:59.182Z,0.00
2023-01-10T19:29:59.183Z,0.00
2023-01-10T19:31:04.552Z,0.00
2023-01-10T19:32:00.287Z,0.00
2023-01-10T19:32:59.146Z,0.00
2023-01-10T19:33:59.163Z,0.00
2023-01-10T19:34:59.199Z,0.00
2023-01-10T19:35:59.098Z,0.00
2023-01-10T19:36:59.110Z,0.00
2023-01-10T19:37:59.095Z,0.00
2023-01-10T19:38:59.114Z,0.00
2023-01-10T19:39:59.058Z,0.00
2023-01-10T19:40:59.052Z,0.00
2023-01-10T19:41:59.062Z,0.00
2023-01-10T19:42:59.028Z,0.00
2023-01-10T19:43:59.008Z,0.00
2023-01-10T19:44:59.048Z,0.00
2023-01-10T19:45:59.064Z,0.00
2023-01-10T19:46:59.001Z,0.00
2023-01-10T19:47:58.964Z,0.00
2023-01-10T19:48:58.950Z,0.00
2023-01-10T19:49:58.968Z,0.00
2023-01-10T19:50:58.937Z,0.00
2023-01-10T19:51:58.951Z,0.00
2023-01-10T19:52:58.912Z,0.00
2023-01-10T19:53:58.915Z,0.00
2023-01-10T19:54:59.004Z,0.00
2023-01-10T19:55:59.779Z,0.00
2023-01-10T19:56:58.903Z,0.00
2023-01-10T19:57:58.848Z,0.00
2023-01-10T19:58:58.830Z,0.00
2023-01-10T19:59:58.828Z,0.00
2023-01-10T20:00:58.825Z,0.00
2023-01-10T20:01:58.885Z,0.00
2023-01-10T20:02:58.912Z,0.00
2023-01-10T20:03:58.843Z,0.00
2023-01-10T20:04:58.885Z,0.00
2023-01-10T20:05:58.794Z,0.00
2023-01-10T20:06:58.876Z,0.00
2023-01-10T20:07:58.750Z,0.00
2023-01-10T20:08:58.729Z,0.00
2023-01-10T20:09:58.715Z,0.00
2023-01-10T20:10:58.711Z,0.00
2023-01-10T20:11:58.703Z,0.00
2023-01-10T20:12:58.717Z,0.00
2023-01-10T20:13:58.699Z,0.00
2023-01-10T20:14:58.688Z,0.00
2023-01-10T20:15:58.731Z,0.00
2023-01-10T20:16:58.632Z,0.00
2023-01-10T20:17:58.622Z,0.00
2023-01-10T20:18:58.625Z,0.00
2023-01-10T20:19:58.602Z,0.00
2023-01-10T20:20:58.598Z,0.00
2023-01-10T20:21:58.599Z,0.00
2023-01-10T20:22:58.587Z,0.00
2023-01-10T20:23:58.573Z,0.00
2023-01-10T20:24:58.543Z,0.00
2023-01-10T20:25:58.545Z,0.00
2023-01-10T20:26:58.541Z,0.00
2023-01-10T20:27:58.522Z,0.00
2023-01-10T20:28:58.523Z,0.00
2023-01-10T20:29:58.487Z,0.00
2023-01-10T20:30:58.506Z,0.00
2023-01-10T20:31:58.478Z,0.00
2023-01-10T20:32:58.500Z,0.00
2023-01-10T20:33:58.498Z,0.00
2023-01-10T20:34:58.453Z,0.00
2023-01-10T20:35:58.435Z,0.00
2023-01-10T20:36:58.418Z,0.00
2023-01-10T20:37:58.418Z,0.00
2023-01-10T20:38:58.415Z,0.00
2023-01-10T20:39:58.390Z,0.00
2023-01-10T20:40:58.357Z,0.00
2023-01-10T20:41:58.365Z,0.00
2023-01-10T20:42:58.336Z,0.00